sensor_id;sensor_type;location;lat;lon;timestamp;noise_LAeq;noise_LA_min;noise_LA_max;noise_LA01;noise_LA95
11999;Laerm;40817;51.520;9.954;2023-12-20T00:02:27;43.58;40.71;61.97;;
11999;Laerm;40817;51.520;9.954;2023-12-20T00:04:54;43.73;40.62;61.38;;
11999;Laerm;40817;51.520;9.954;2023-12-20T00:07:21;43.30;39.58;60.95;;
11999;Laerm;40817;51.520;9.954;2023-12-20T00:09:48;43.09;40.23;61.31;;
11999;Laerm;40817;51.520;9.954;2023-12-20T00:12:16;43.23;40.43;60.55;;
11999;Laerm;40817;51.520;9.954;2023-12-20T00:14:43;44.44;41.30;62.61;;
11999;Laerm;40817;51.520;9.954;2023-12-20T00:17:12;44.04;40.98;59.57;;
11999;Laerm;40817;51.520;9.954;2023-12-20T00:19:39;43.56;40.23;60.82;;
11999;Laerm;40817;51.520;9.954;2023-12-20T00:22:06;43.35;39.70;61.64;;
11999;Laerm;40817;51.520;9.954;2023-12-20T00:24:33;43.44;40.33;60.16;;
11999;Laerm;40817;51.520;9.954;2023-12-20T00:27:00;44.93;40.89;60.42;;
11999;Laerm;40817;51.520;9.954;2023-12-20T00:29:28;44.89;42.09;61.55;;
11999;Laerm;40817;51.520;9.954;2023-12-20T00:31:55;44.25;40.53;58.01;;
11999;Laerm;40817;51.520;9.954;2023-12-20T00:34:24;43.74;40.89;60.27;;
11999;Laerm;40817;51.520;9.954;2023-12-20T00:36:51;43.73;39.92;60.91;;
11999;Laerm;40817;51.520;9.954;2023-12-20T00:39:18;43.93;40.53;58.40;;
11999;Laerm;40817;51.520;9.954;2023-12-20T00:41:45;43.55;40.03;58.20;;
11999;Laerm;40817;51.520;9.954;2023-12-20T00:44:13;43.85;40.53;57.81;;
11999;Laerm;40817;51.520;9.954;2023-12-20T00:46:40;43.76;40.53;57.32;;
11999;Laerm;40817;51.520;9.954;2023-12-20T00:49:07;43.48;40.03;57.22;;
11999;Laerm;40817;51.520;9.954;2023-12-20T00:51:36;43.82;40.53;59.75;;
11999;Laerm;40817;51.520;9.954;2023-12-20T00:54:03;43.95;40.43;61.07;;
11999;Laerm;40817;51.520;9.954;2023-12-20T00:56:30;44.07;40.71;57.51;;
11999;Laerm;40817;51.520;9.954;2023-12-20T00:58:58;43.67;39.81;58.13;;
11999;Laerm;40817;51.520;9.954;2023-12-20T01:01:25;43.81;40.33;57.54;;
11999;Laerm;40817;51.520;9.954;2023-12-20T01:03:52;43.47;40.13;57.45;;
11999;Laerm;40817;51.520;9.954;2023-12-20T01:06:19;43.48;39.81;57.61;;
11999;Laerm;40817;51.520;9.954;2023-12-20T01:08:48;43.76;40.71;58.69;;
11999;Laerm;40817;51.520;9.954;2023-12-20T01:11:15;43.53;39.92;57.01;;
11999;Laerm;40817;51.520;9.954;2023-12-20T01:13:42;43.58;40.13;56.79;;
11999;Laerm;40817;51.520;9.954;2023-12-20T01:16:12;44.03;40.89;51.69;;
11999;Laerm;40817;51.520;9.954;2023-12-20T01:18:39;43.83;40.89;55.16;;
11999;Laerm;40817;51.520;9.954;2023-12-20T01:21:06;43.80;40.53;57.67;;
11999;Laerm;40817;51.520;9.954;2023-12-20T01:23:34;43.29;40.23;58.39;;
11999;Laerm;40817;51.520;9.954;2023-12-20T01:26:03;44.14;39.81;57.64;;
11999;Laerm;40817;51.520;9.954;2023-12-20T01:28:31;43.68;40.71;56.55;;
11999;Laerm;40817;51.520;9.954;2023-12-20T01:30:58;44.44;40.98;57.75;;
11999;Laerm;40817;51.520;9.954;2023-12-20T01:33:26;44.20;40.98;58.02;;
11999;Laerm;40817;51.520;9.954;2023-12-20T01:35:53;43.94;41.22;49.28;;
11999;Laerm;40817;51.520;9.954;2023-12-20T01:38:20;43.88;40.80;57.37;;
11999;Laerm;40817;51.520;9.954;2023-12-20T01:40:48;43.79;40.53;58.27;;
11999;Laerm;40817;51.520;9.954;2023-12-20T01:43:16;43.34;40.03;53.56;;
11999;Laerm;40817;51.520;9.954;2023-12-20T01:45:43;43.75;40.53;57.18;;
11999;Laerm;40817;51.520;9.954;2023-12-20T01:48:11;43.68;40.43;58.10;;
11999;Laerm;40817;51.520;9.954;2023-12-20T01:50:40;43.07;38.81;57.73;;
11999;Laerm;40817;51.520;9.954;2023-12-20T01:53:10;43.26;40.23;59.64;;
11999;Laerm;40817;51.520;9.954;2023-12-20T01:55:40;43.95;40.33;63.89;;
11999;Laerm;40817;51.520;9.954;2023-12-20T01:58:09;43.78;40.62;56.71;;
11999;Laerm;40817;51.520;9.954;2023-12-20T02:00:38;43.47;40.43;57.81;;
11999;Laerm;40817;51.520;9.954;2023-12-20T02:03:06;43.54;40.23;63.49;;
11999;Laerm;40817;51.520;9.954;2023-12-20T02:05:35;43.40;39.92;58.36;;
11999;Laerm;40817;51.520;9.954;2023-12-20T02:08:03;43.45;40.03;58.34;;
11999;Laerm;40817;51.520;9.954;2023-12-20T02:10:32;43.49;39.70;57.79;;
11999;Laerm;40817;51.520;9.954;2023-12-20T02:12:59;43.62;40.33;59.34;;
11999;Laerm;40817;51.520;9.954;2023-12-20T02:15:26;43.23;40.13;56.97;;
11999;Laerm;40817;51.520;9.954;2023-12-20T02:17:55;43.03;39.58;58.31;;
11999;Laerm;40817;51.520;9.954;2023-12-20T02:20:23;42.95;39.46;59.32;;
11999;Laerm;40817;51.520;9.954;2023-12-20T02:22:51;43.70;39.81;58.48;;
11999;Laerm;40817;51.520;9.954;2023-12-20T02:25:18;43.43;39.70;58.25;;
11999;Laerm;40817;51.520;9.954;2023-12-20T02:27:46;43.73;40.80;57.54;;
11999;Laerm;40817;51.520;9.954;2023-12-20T02:30:14;43.39;40.03;58.20;;
11999;Laerm;40817;51.520;9.954;2023-12-20T02:32:42;43.76;41.14;57.63;;
11999;Laerm;40817;51.520;9.954;2023-12-20T02:35:09;43.64;40.53;57.39;;
11999;Laerm;40817;51.520;9.954;2023-12-20T02:37:36;43.54;39.46;57.45;;
11999;Laerm;40817;51.520;9.954;2023-12-20T02:40:07;43.75;40.03;59.53;;
11999;Laerm;40817;51.520;9.954;2023-12-20T02:42:34;43.33;39.46;58.64;;
11999;Laerm;40817;51.520;9.954;2023-12-20T02:45:01;43.22;39.21;57.76;;
11999;Laerm;40817;51.520;9.954;2023-12-20T02:47:29;43.92;40.13;53.42;;
11999;Laerm;40817;51.520;9.954;2023-12-20T02:49:56;43.55;40.33;58.57;;
11999;Laerm;40817;51.520;9.954;2023-12-20T02:52:24;43.17;39.99;58.45;;
11999;Laerm;40817;51.520;9.954;2023-12-20T02:54:51;44.32;40.03;50.87;;
11999;Laerm;40817;51.520;9.954;2023-12-20T02:57:20;44.12;40.98;58.46;;
11999;Laerm;40817;51.520;9.954;2023-12-20T02:59:47;43.48;39.70;58.61;;
11999;Laerm;40817;51.520;9.954;2023-12-20T03:02:15;43.11;39.46;58.04;;
11999;Laerm;40817;51.520;9.954;2023-12-20T03:04:42;43.38;39.21;58.28;;
11999;Laerm;40817;51.520;9.954;2023-12-20T03:07:09;42.96;39.34;57.69;;
11999;Laerm;40817;51.520;9.954;2023-12-20T03:09:38;43.15;39.46;58.19;;
11999;Laerm;40817;51.520;9.954;2023-12-20T03:12:05;42.85;38.52;58.66;;
11999;Laerm;40817;51.520;9.954;2023-12-20T03:14:34;43.24;39.34;48.43;;
11999;Laerm;40817;51.520;9.954;2023-12-20T03:17:01;43.39;39.58;57.51;;
11999;Laerm;40817;51.520;9.954;2023-12-20T03:19:28;43.80;38.87;57.87;;
11999;Laerm;40817;51.520;9.954;2023-12-20T03:21:55;42.87;39.92;45.01;;
11999;Laerm;40817;51.520;9.954;2023-12-20T03:24:23;43.13;39.08;50.39;;
11999;Laerm;40817;51.520;9.954;2023-12-20T03:26:50;42.94;39.81;58.56;;
11999;Laerm;40817;51.520;9.954;2023-12-20T03:29:17;42.93;39.21;45.04;;
11999;Laerm;40817;51.520;9.954;2023-12-20T03:31:46;42.88;39.21;58.19;;
11999;Laerm;40817;51.520;9.954;2023-12-20T03:34:13;42.98;39.81;58.87;;
11999;Laerm;40817;51.520;9.954;2023-12-20T03:36:40;42.67;39.34;44.94;;
11999;Laerm;40817;51.520;9.954;2023-12-20T03:39:07;43.57;40.43;45.36;;
11999;Laerm;40817;51.520;9.954;2023-12-20T03:41:36;43.16;39.70;51.37;;
11999;Laerm;40817;51.520;9.954;2023-12-20T03:44:03;43.90;40.43;58.85;;
11999;Laerm;40817;51.520;9.954;2023-12-20T03:46:31;43.73;40.98;45.48;;
11999;Laerm;40817;51.520;9.954;2023-12-20T03:49:00;43.36;39.58;58.25;;
11999;Laerm;40817;51.520;9.954;2023-12-20T03:51:27;43.20;40.03;45.07;;
11999;Laerm;40817;51.520;9.954;2023-12-20T03:53:54;43.32;40.13;45.30;;
11999;Laerm;40817;51.520;9.954;2023-12-20T03:56:21;43.26;40.13;57.93;;
11999;Laerm;40817;51.520;9.954;2023-12-20T03:58:49;42.91;39.81;45.30;;
11999;Laerm;40817;51.520;9.954;2023-12-20T04:01:16;42.99;38.52;57.70;;
11999;Laerm;40817;51.520;9.954;2023-12-20T04:03:43;43.39;39.81;58.50;;
11999;Laerm;40817;51.520;9.954;2023-12-20T04:06:17;43.32;38.52;46.28;;
11999;Laerm;40817;51.520;9.954;2023-12-20T04:08:44;43.57;39.08;53.22;;
11999;Laerm;40817;51.520;9.954;2023-12-20T04:11:11;43.31;39.58;52.78;;
11999;Laerm;40817;51.520;9.954;2023-12-20T04:13:39;43.41;40.27;58.03;;
11999;Laerm;40817;51.520;9.954;2023-12-20T04:16:06;43.84;40.80;49.92;;
11999;Laerm;40817;51.520;9.954;2023-12-20T04:18:33;43.39;40.23;48.18;;
11999;Laerm;40817;51.520;9.954;2023-12-20T04:21:01;43.42;39.70;45.11;;
11999;Laerm;40817;51.520;9.954;2023-12-20T04:23:29;43.48;40.62;58.62;;
11999;Laerm;40817;51.520;9.954;2023-12-20T04:25:56;43.48;40.53;45.63;;
11999;Laerm;40817;51.520;9.954;2023-12-20T04:28:24;43.51;40.71;50.03;;
11999;Laerm;40817;51.520;9.954;2023-12-20T04:30:51;43.93;40.53;51.84;;
11999;Laerm;40817;51.520;9.954;2023-12-20T04:33:18;43.86;40.89;46.97;;
11999;Laerm;40817;51.520;9.954;2023-12-20T04:35:45;44.01;41.46;46.30;;
11999;Laerm;40817;51.520;9.954;2023-12-20T04:38:13;43.99;41.46;58.95;;
11999;Laerm;40817;51.520;9.954;2023-12-20T04:40:41;44.16;41.53;54.43;;
11999;Laerm;40817;51.520;9.954;2023-12-20T04:43:08;44.03;40.98;52.62;;
11999;Laerm;40817;51.520;9.954;2023-12-20T04:45:36;44.28;41.30;59.28;;
11999;Laerm;40817;51.520;9.954;2023-12-20T04:48:06;44.18;41.22;49.85;;
11999;Laerm;40817;51.520;9.954;2023-12-20T04:50:33;44.02;41.61;51.36;;
11999;Laerm;40817;51.520;9.954;2023-12-20T04:53:00;44.15;41.38;56.31;;
11999;Laerm;40817;51.520;9.954;2023-12-20T04:55:27;44.20;41.89;54.63;;
11999;Laerm;40817;51.520;9.954;2023-12-20T04:57:56;44.32;41.46;49.06;;
11999;Laerm;40817;51.520;9.954;2023-12-20T05:00:23;45.20;40.98;67.97;;
11999;Laerm;40817;51.520;9.954;2023-12-20T05:02:51;44.43;41.14;65.12;;
11999;Laerm;40817;51.520;9.954;2023-12-20T05:05:18;44.54;41.53;53.70;;
11999;Laerm;40817;51.520;9.954;2023-12-20T05:07:45;44.63;41.96;67.23;;
11999;Laerm;40817;51.520;9.954;2023-12-20T05:10:13;44.30;42.09;48.85;;
11999;Laerm;40817;51.520;9.954;2023-12-20T05:12:40;44.50;42.03;49.30;;
11999;Laerm;40817;51.520;9.954;2023-12-20T05:15:09;45.11;42.03;63.56;;
11999;Laerm;40817;51.520;9.954;2023-12-20T05:17:36;46.00;42.98;54.90;;
11999;Laerm;40817;51.520;9.954;2023-12-20T05:20:06;45.04;41.82;62.44;;
11999;Laerm;40817;51.520;9.954;2023-12-20T05:22:33;44.35;42.16;56.35;;
11999;Laerm;40817;51.520;9.954;2023-12-20T05:25:01;44.36;42.22;46.13;;
11999;Laerm;40817;51.520;9.954;2023-12-20T05:27:28;44.43;41.68;51.41;;
11999;Laerm;40817;51.520;9.954;2023-12-20T05:29:55;44.67;41.61;50.73;;
11999;Laerm;40817;51.520;9.954;2023-12-20T05:32:24;44.68;41.96;49.81;;
11999;Laerm;40817;51.520;9.954;2023-12-20T05:34:52;44.25;41.53;47.00;;
11999;Laerm;40817;51.520;9.954;2023-12-20T05:37:19;44.42;41.82;50.85;;
11999;Laerm;40817;51.520;9.954;2023-12-20T05:39:46;44.42;41.82;47.95;;
11999;Laerm;40817;51.520;9.954;2023-12-20T05:42:14;46.72;42.09;62.78;;
11999;Laerm;40817;51.520;9.954;2023-12-20T05:44:41;45.09;41.82;57.25;;
11999;Laerm;40817;51.520;9.954;2023-12-20T05:47:08;44.40;42.16;59.08;;
11999;Laerm;40817;51.520;9.954;2023-12-20T05:49:36;44.26;41.75;47.12;;
11999;Laerm;40817;51.520;9.954;2023-12-20T05:52:05;44.46;42.03;57.77;;
11999;Laerm;40817;51.520;9.954;2023-12-20T05:54:32;44.42;41.75;48.85;;
11999;Laerm;40817;51.520;9.954;2023-12-20T05:57:00;44.67;41.46;51.00;;
11999;Laerm;40817;51.520;9.954;2023-12-20T05:59:27;45.43;42.09;58.14;;
11999;Laerm;40817;51.520;9.954;2023-12-20T06:01:54;45.61;41.75;58.43;;
11999;Laerm;40817;51.520;9.954;2023-12-20T06:04:22;44.47;42.29;49.96;;
11999;Laerm;40817;51.520;9.954;2023-12-20T06:06:50;47.44;42.88;59.25;;
11999;Laerm;40817;51.520;9.954;2023-12-20T06:09:17;45.79;42.53;54.79;;
11999;Laerm;40817;51.520;9.954;2023-12-20T06:11:45;45.07;41.75;51.19;;
11999;Laerm;40817;51.520;9.954;2023-12-20T06:14:12;45.81;42.93;55.87;;
11999;Laerm;40817;51.520;9.954;2023-12-20T06:16:39;45.98;42.59;55.42;;
11999;Laerm;40817;51.520;9.954;2023-12-20T06:19:07;45.11;42.59;57.21;;
11999;Laerm;40817;51.520;9.954;2023-12-20T06:21:34;45.10;41.81;59.95;;
11999;Laerm;40817;51.520;9.954;2023-12-20T06:24:03;44.50;41.14;55.80;;
11999;Laerm;40817;51.520;9.954;2023-12-20T06:26:31;44.47;42.29;57.34;;
11999;Laerm;40817;51.520;9.954;2023-12-20T06:28:58;44.40;41.53;51.80;;
11999;Laerm;40817;51.520;9.954;2023-12-20T06:31:25;44.96;41.75;60.21;;
11999;Laerm;40817;51.520;9.954;2023-12-20T06:33:52;44.45;42.16;47.42;;
11999;Laerm;40817;51.520;9.954;2023-12-20T06:36:23;44.42;42.03;47.06;;
11999;Laerm;40817;51.520;9.954;2023-12-20T06:38:51;44.80;42.29;52.15;;
11999;Laerm;40817;51.520;9.954;2023-12-20T06:41:19;44.63;41.68;56.85;;
11999;Laerm;40817;51.520;9.954;2023-12-20T06:43:46;44.57;42.35;50.51;;
11999;Laerm;40817;51.520;9.954;2023-12-20T06:46:14;44.64;41.53;53.77;;
11999;Laerm;40817;51.520;9.954;2023-12-20T06:48:41;44.86;41.82;55.08;;
11999;Laerm;40817;51.520;9.954;2023-12-20T06:51:14;46.14;42.16;64.87;;
11999;Laerm;40817;51.520;9.954;2023-12-20T06:53:41;46.44;42.65;55.94;;
11999;Laerm;40817;51.520;9.954;2023-12-20T06:56:11;45.16;41.89;61.09;;
11999;Laerm;40817;51.520;9.954;2023-12-20T06:58:39;45.70;42.53;58.71;;
11999;Laerm;40817;51.520;9.954;2023-12-20T07:01:11;45.21;42.65;56.83;;
11999;Laerm;40817;51.520;9.954;2023-12-20T07:03:39;44.82;42.22;49.72;;
11999;Laerm;40817;51.520;9.954;2023-12-20T07:06:08;44.66;42.29;51.57;;
11999;Laerm;40817;51.520;9.954;2023-12-20T07:08:35;46.34;42.82;60.98;;
11999;Laerm;40817;51.520;9.954;2023-12-20T07:11:03;49.25;42.29;66.42;;
11999;Laerm;40817;51.520;9.954;2023-12-20T07:13:30;44.94;42.16;49.75;;
11999;Laerm;40817;51.520;9.954;2023-12-20T07:15:59;45.52;42.47;52.40;;
11999;Laerm;40817;51.520;9.954;2023-12-20T07:18:26;46.82;42.03;60.31;;
11999;Laerm;40817;51.520;9.954;2023-12-20T07:20:53;47.98;43.29;64.17;;
11999;Laerm;40817;51.520;9.954;2023-12-20T07:23:21;47.40;42.65;63.25;;
11999;Laerm;40817;51.520;9.954;2023-12-20T07:25:51;44.96;42.41;58.28;;
11999;Laerm;40817;51.520;9.954;2023-12-20T07:28:19;45.43;41.82;59.68;;
11999;Laerm;40817;51.520;9.954;2023-12-20T07:30:46;44.85;42.35;56.58;;
11999;Laerm;40817;51.520;9.954;2023-12-20T07:33:15;44.76;42.09;50.07;;
11999;Laerm;40817;51.520;9.954;2023-12-20T07:35:42;46.05;42.76;59.12;;
11999;Laerm;40817;51.520;9.954;2023-12-20T07:38:11;46.01;42.59;58.34;;
11999;Laerm;40817;51.520;9.954;2023-12-20T07:40:39;45.40;41.89;57.37;;
11999;Laerm;40817;51.520;9.954;2023-12-20T07:43:06;45.39;42.03;60.53;;
11999;Laerm;40817;51.520;9.954;2023-12-20T07:45:33;45.31;42.53;61.33;;
11999;Laerm;40817;51.520;9.954;2023-12-20T07:48:01;47.02;42.98;62.05;;
11999;Laerm;40817;51.520;9.954;2023-12-20T07:50:29;45.64;42.65;62.48;;
11999;Laerm;40817;51.520;9.954;2023-12-20T07:52:56;45.04;41.75;55.55;;
11999;Laerm;40817;51.520;9.954;2023-12-20T07:55:25;45.90;42.53;61.51;;
11999;Laerm;40817;51.520;9.954;2023-12-20T07:57:52;46.06;42.41;59.46;;
11999;Laerm;40817;51.520;9.954;2023-12-20T08:00:20;45.06;42.29;56.19;;
11999;Laerm;40817;51.520;9.954;2023-12-20T08:02:47;46.50;42.53;58.85;;
11999;Laerm;40817;51.520;9.954;2023-12-20T08:05:15;44.90;42.41;58.95;;
11999;Laerm;40817;51.520;9.954;2023-12-20T08:07:43;46.56;42.71;63.38;;
11999;Laerm;40817;51.520;9.954;2023-12-20T08:10:10;45.15;41.89;59.11;;
11999;Laerm;40817;51.520;9.954;2023-12-20T08:12:38;45.18;42.16;65.80;;
11999;Laerm;40817;51.520;9.954;2023-12-20T08:15:08;59.32;42.09;72.36;;
11999;Laerm;40817;51.520;9.954;2023-12-20T08:17:35;46.65;42.82;62.78;;
11999;Laerm;40817;51.520;9.954;2023-12-20T08:20:03;48.15;42.41;68.04;;
11999;Laerm;40817;51.520;9.954;2023-12-20T08:22:31;50.65;42.76;73.98;;
11999;Laerm;40817;51.520;9.954;2023-12-20T08:24:59;50.68;42.98;72.05;;
11999;Laerm;40817;51.520;9.954;2023-12-20T08:27:27;47.44;42.76;67.36;;
11999;Laerm;40817;51.520;9.954;2023-12-20T08:29:54;46.28;42.65;68.73;;
11999;Laerm;40817;51.520;9.954;2023-12-20T08:32:21;46.29;42.53;66.77;;
11999;Laerm;40817;51.520;9.954;2023-12-20T08:34:48;45.91;42.93;63.78;;
11999;Laerm;40817;51.520;9.954;2023-12-20T08:37:16;46.67;41.89;69.39;;
11999;Laerm;40817;51.520;9.954;2023-12-20T08:39:43;46.69;42.82;71.50;;
11999;Laerm;40817;51.520;9.954;2023-12-20T08:42:12;47.14;42.59;68.66;;
11999;Laerm;40817;51.520;9.954;2023-12-20T08:44:39;46.18;42.41;65.38;;
11999;Laerm;40817;51.520;9.954;2023-12-20T08:47:07;45.94;42.65;63.77;;
11999;Laerm;40817;51.520;9.954;2023-12-20T08:49:34;45.52;42.98;63.54;;
11999;Laerm;40817;51.520;9.954;2023-12-20T08:52:01;47.00;42.71;70.72;;
11999;Laerm;40817;51.520;9.954;2023-12-20T08:54:28;45.48;42.82;64.51;;
11999;Laerm;40817;51.520;9.954;2023-12-20T08:56:56;46.35;42.88;63.08;;
11999;Laerm;40817;51.520;9.954;2023-12-20T08:59:24;46.75;42.88;69.06;;
11999;Laerm;40817;51.520;9.954;2023-12-20T09:01:51;46.16;42.71;63.39;;
11999;Laerm;40817;51.520;9.954;2023-12-20T09:04:20;47.35;42.64;64.71;;
11999;Laerm;40817;51.520;9.954;2023-12-20T09:06:47;48.84;42.41;64.74;;
11999;Laerm;40817;51.520;9.954;2023-12-20T09:09:15;46.31;42.76;66.27;;
11999;Laerm;40817;51.520;9.954;2023-12-20T09:11:42;45.14;41.14;62.25;;
11999;Laerm;40817;51.520;9.954;2023-12-20T09:14:12;47.13;43.14;70.18;;
11999;Laerm;40817;51.520;9.954;2023-12-20T09:16:40;45.68;42.42;61.01;;
11999;Laerm;40817;51.520;9.954;2023-12-20T09:19:08;45.25;42.35;61.59;;
11999;Laerm;40817;51.520;9.954;2023-12-20T09:21:35;48.89;42.71;73.95;;
11999;Laerm;40817;51.520;9.954;2023-12-20T09:24:03;50.24;43.63;76.69;;
11999;Laerm;40817;51.520;9.954;2023-12-20T09:26:30;52.59;42.59;71.09;;
11999;Laerm;40817;51.520;9.954;2023-12-20T09:28:57;49.05;42.22;68.41;;
11999;Laerm;40817;51.520;9.954;2023-12-20T09:31:24;46.89;42.19;67.00;;
11999;Laerm;40817;51.520;9.954;2023-12-20T09:33:53;47.61;42.47;68.90;;
11999;Laerm;40817;51.520;9.954;2023-12-20T09:36:20;47.69;42.41;69.40;;
11999;Laerm;40817;51.520;9.954;2023-12-20T09:38:47;46.57;42.93;68.56;;
11999;Laerm;40817;51.520;9.954;2023-12-20T09:41:15;46.44;42.93;64.73;;
11999;Laerm;40817;51.520;9.954;2023-12-20T09:43:45;48.15;43.04;70.19;;
11999;Laerm;40817;51.520;9.954;2023-12-20T09:46:14;46.57;43.19;63.18;;
11999;Laerm;40817;51.520;9.954;2023-12-20T09:48:46;47.49;42.82;68.01;;
11999;Laerm;40817;51.520;9.954;2023-12-20T09:51:15;46.07;42.93;63.50;;
11999;Laerm;40817;51.520;9.954;2023-12-20T09:53:43;47.69;43.09;65.89;;
11999;Laerm;40817;51.520;9.954;2023-12-20T09:56:11;46.73;42.93;70.32;;
11999;Laerm;40817;51.520;9.954;2023-12-20T09:58:39;45.74;42.29;63.53;;
11999;Laerm;40817;51.520;9.954;2023-12-20T10:01:07;45.74;42.41;63.40;;
11999;Laerm;40817;51.520;9.954;2023-12-20T10:03:35;46.93;42.76;64.70;;
11999;Laerm;40817;51.520;9.954;2023-12-20T10:06:05;45.50;41.68;63.93;;
11999;Laerm;40817;51.520;9.954;2023-12-20T10:08:34;45.43;42.71;63.92;;
11999;Laerm;40817;51.520;9.954;2023-12-20T10:11:03;45.75;42.03;63.21;;
11999;Laerm;40817;51.520;9.954;2023-12-20T10:13:30;45.54;42.65;62.80;;
11999;Laerm;40817;51.520;9.954;2023-12-20T10:15:58;45.60;42.71;63.49;;
11999;Laerm;40817;51.520;9.954;2023-12-20T10:18:29;46.50;42.53;63.04;;
11999;Laerm;40817;51.520;9.954;2023-12-20T10:20:57;46.61;42.98;61.10;;
11999;Laerm;40817;51.520;9.954;2023-12-20T10:23:24;46.53;43.14;61.32;;
11999;Laerm;40817;51.520;9.954;2023-12-20T10:26:02;46.42;42.76;62.66;;
11999;Laerm;40817;51.520;9.954;2023-12-20T10:28:33;49.48;43.72;67.52;;
11999;Laerm;40817;51.520;9.954;2023-12-20T10:31:01;48.85;43.09;62.70;;
11999;Laerm;40817;51.520;9.954;2023-12-20T10:33:31;47.21;43.44;66.35;;
11999;Laerm;40817;51.520;9.954;2023-12-20T10:35:59;47.17;43.04;66.36;;
11999;Laerm;40817;51.520;9.954;2023-12-20T10:38:26;48.09;43.29;62.78;;
11999;Laerm;40817;51.520;9.954;2023-12-20T10:40:57;48.52;43.19;69.72;;
11999;Laerm;40817;51.520;9.954;2023-12-20T10:43:28;48.41;43.58;64.21;;
11999;Laerm;40817;51.520;9.954;2023-12-20T10:45:57;49.10;43.29;69.75;;
11999;Laerm;40817;51.520;9.954;2023-12-20T10:48:27;50.92;43.29;69.71;;
11999;Laerm;40817;51.520;9.954;2023-12-20T10:50:56;48.32;43.39;69.25;;
11999;Laerm;40817;51.520;9.954;2023-12-20T10:53:25;46.85;42.98;63.77;;
11999;Laerm;40817;51.520;9.954;2023-12-20T10:55:55;46.40;43.24;66.16;;
11999;Laerm;40817;51.520;9.954;2023-12-20T10:58:22;47.98;42.98;69.69;;
11999;Laerm;40817;51.520;9.954;2023-12-20T11:01:00;51.73;43.58;63.76;;
11999;Laerm;40817;51.520;9.954;2023-12-20T11:03:28;60.13;43.90;74.81;;
11999;Laerm;40817;51.520;9.954;2023-12-20T11:06:05;47.69;44.03;70.38;;
11999;Laerm;40817;51.520;9.954;2023-12-20T11:08:44;50.26;42.98;66.39;;
11999;Laerm;40817;51.520;9.954;2023-12-20T11:11:21;50.88;44.47;67.85;;
11999;Laerm;40817;51.520;9.954;2023-12-20T11:13:58;48.11;43.63;65.84;;
11999;Laerm;40817;51.520;9.954;2023-12-20T11:16:29;49.38;44.19;71.56;;
11999;Laerm;40817;51.520;9.954;2023-12-20T11:18:59;49.48;43.68;70.18;;
11999;Laerm;40817;51.520;9.954;2023-12-20T11:21:30;48.85;43.29;62.76;;
11999;Laerm;40817;51.520;9.954;2023-12-20T11:23:57;46.91;43.77;63.33;;
11999;Laerm;40817;51.520;9.954;2023-12-20T11:26:28;46.83;43.86;62.39;;
11999;Laerm;40817;51.520;9.954;2023-12-20T11:29:34;46.80;43.19;64.86;;
11999;Laerm;40817;51.520;9.954;2023-12-20T11:32:28;47.56;43.04;70.58;;
11999;Laerm;40817;51.520;9.954;2023-12-20T11:34:57;48.91;43.54;66.75;;
11999;Laerm;40817;51.520;9.954;2023-12-20T11:37:29;48.63;43.49;66.48;;
11999;Laerm;40817;51.520;9.954;2023-12-20T11:40:02;48.31;43.81;67.33;;
11999;Laerm;40817;51.520;9.954;2023-12-20T11:42:33;48.03;43.54;69.06;;
11999;Laerm;40817;51.520;9.954;2023-12-20T11:45:02;46.71;43.29;64.13;;
11999;Laerm;40817;51.520;9.954;2023-12-20T11:47:32;48.00;44.11;65.11;;
11999;Laerm;40817;51.520;9.954;2023-12-20T11:49:59;47.23;43.94;62.24;;
11999;Laerm;40817;51.520;9.954;2023-12-20T11:52:29;47.64;43.63;61.78;;
11999;Laerm;40817;51.520;9.954;2023-12-20T11:54:57;46.73;43.77;62.48;;
11999;Laerm;40817;51.520;9.954;2023-12-20T11:57:25;49.64;43.90;66.53;;
11999;Laerm;40817;51.520;9.954;2023-12-20T11:59:52;48.10;43.90;70.66;;
11999;Laerm;40817;51.520;9.954;2023-12-20T12:02:20;47.48;43.58;70.78;;
11999;Laerm;40817;51.520;9.954;2023-12-20T12:04:50;49.26;43.86;65.85;;
11999;Laerm;40817;51.520;9.954;2023-12-20T12:07:18;51.59;43.77;72.38;;
11999;Laerm;40817;51.520;9.954;2023-12-20T12:09:46;51.44;43.90;72.03;;
11999;Laerm;40817;51.520;9.954;2023-12-20T12:12:13;51.04;44.11;73.36;;
11999;Laerm;40817;51.520;9.954;2023-12-20T12:14:41;48.71;43.29;70.55;;
11999;Laerm;40817;51.520;9.954;2023-12-20T12:17:11;53.52;43.94;79.03;;
11999;Laerm;40817;51.520;9.954;2023-12-20T12:19:39;53.79;43.68;72.01;;
11999;Laerm;40817;51.520;9.954;2023-12-20T12:22:10;52.92;43.44;79.19;;
11999;Laerm;40817;51.520;9.954;2023-12-20T12:24:40;52.26;43.14;74.58;;
11999;Laerm;40817;51.520;9.954;2023-12-20T12:27:07;55.61;43.14;85.12;;
11999;Laerm;40817;51.520;9.954;2023-12-20T12:29:35;51.72;43.54;73.41;;
11999;Laerm;40817;51.520;9.954;2023-12-20T12:32:05;52.65;43.58;72.63;;
11999;Laerm;40817;51.520;9.954;2023-12-20T12:34:33;49.58;42.82;72.00;;
11999;Laerm;40817;51.520;9.954;2023-12-20T12:37:01;49.05;43.24;74.45;;
11999;Laerm;40817;51.520;9.954;2023-12-20T12:39:30;54.62;43.49;71.54;;
11999;Laerm;40817;51.520;9.954;2023-12-20T12:41:58;58.25;43.90;84.62;;
11999;Laerm;40817;51.520;9.954;2023-12-20T12:44:25;57.20;43.54;85.73;;
11999;Laerm;40817;51.520;9.954;2023-12-20T12:46:53;53.30;43.63;72.07;;
11999;Laerm;40817;51.520;9.954;2023-12-20T12:49:20;52.47;43.34;76.16;;
11999;Laerm;40817;51.520;9.954;2023-12-20T12:51:48;49.76;43.04;77.48;;
11999;Laerm;40817;51.520;9.954;2023-12-20T12:54:15;49.61;42.98;71.48;;
11999;Laerm;40817;51.520;9.954;2023-12-20T12:56:45;49.16;42.98;73.02;;
11999;Laerm;40817;51.520;9.954;2023-12-20T12:59:13;48.41;43.14;72.38;;
11999;Laerm;40817;51.520;9.954;2023-12-20T13:01:40;49.90;42.93;74.72;;
11999;Laerm;40817;51.520;9.954;2023-12-20T13:04:08;52.72;43.24;75.14;;
11999;Laerm;40817;51.520;9.954;2023-12-20T13:06:37;55.91;42.95;80.74;;
11999;Laerm;40817;51.520;9.954;2023-12-20T13:09:04;56.12;43.72;86.25;;
11999;Laerm;40817;51.520;9.954;2023-12-20T13:11:32;53.19;42.71;77.01;;
11999;Laerm;40817;51.520;9.954;2023-12-20T13:14:01;52.43;42.59;79.93;;
11999;Laerm;40817;51.520;9.954;2023-12-20T13:16:29;51.97;43.34;76.24;;
11999;Laerm;40817;51.520;9.954;2023-12-20T13:18:57;53.33;43.24;83.62;;
11999;Laerm;40817;51.520;9.954;2023-12-20T13:21:25;51.16;43.46;75.55;;
11999;Laerm;40817;51.520;9.954;2023-12-20T13:23:53;49.95;43.63;74.17;;
11999;Laerm;40817;51.520;9.954;2023-12-20T13:26:20;51.44;43.72;77.27;;
11999;Laerm;40817;51.520;9.954;2023-12-20T13:28:47;49.07;43.44;71.37;;
11999;Laerm;40817;51.520;9.954;2023-12-20T13:31:16;47.38;43.14;65.88;;
11999;Laerm;40817;51.520;9.954;2023-12-20T13:33:43;49.76;43.19;76.37;;
11999;Laerm;40817;51.520;9.954;2023-12-20T13:36:10;48.52;43.29;71.85;;
11999;Laerm;40817;51.520;9.954;2023-12-20T13:38:38;48.67;42.88;71.43;;
11999;Laerm;40817;51.520;9.954;2023-12-20T13:41:05;48.61;42.82;74.47;;
11999;Laerm;40817;51.520;9.954;2023-12-20T13:43:33;46.46;43.19;62.40;;
11999;Laerm;40817;51.520;9.954;2023-12-20T13:46:01;46.81;43.04;74.75;;
11999;Laerm;40817;51.520;9.954;2023-12-20T13:48:30;46.38;42.76;69.87;;
11999;Laerm;40817;51.520;9.954;2023-12-20T13:50:57;46.66;42.35;71.46;;